Time,TemperatureF,DewpointF,PressureIn,WindDirection,WindDirectionDegrees,WindSpeedMPH,WindSpeedGustMPH,Humidity,HourlyPrecipIn,Conditions,Clouds,dailyrainin,SolarRadiationWatts/m^2,SoftwareType,DateUTC
2013-12-17 00:02:00,40.0,34.0,-100.00,North,-999,0.0,7.0,80,0.00,,,0.00,0.000000,,2013-12-17 06:02:00,
2013-12-17 00:42:00,39.0,34.0,-100.00,North,-999,0.0,4.0,81,0.00,,,0.00,0.000000,,2013-12-17 06:42:00,
2013-12-17 00:52:00,39.0,34.0,-100.00,North,-999,0.0,4.0,81,0.00,,,0.00,0.000000,,2013-12-17 06:52:00,
2013-12-17 01:02:00,39.0,34.0,-100.00,North,-999,0.0,4.0,81,0.00,,,0.00,0.000000,,2013-12-17 07:02:00,
2013-12-17 01:42:00,39.0,31.0,-100.00,SW,226,3.0,8.0,74,0.00,,,0.00,0.000000,,2013-12-17 07:42:00,
2013-12-17 01:52:00,39.0,31.0,-100.00,SW,226,3.0,8.0,74,0.00,,,0.00,0.000000,,2013-12-17 07:52:00,
2013-12-17 02:02:00,39.0,31.0,-100.00,SW,226,3.0,8.0,74,0.00,,,0.00,0.000000,,2013-12-17 08:02:00,
2013-12-17 02:42:00,38.0,33.0,-100.00,SW,230,3.0,6.0,82,0.00,,,0.00,0.000000,,2013-12-17 08:42:00,
2013-12-17 02:52:00,38.0,33.0,-100.00,SW,230,3.0,6.0,82,0.00,,,0.00,0.000000,,2013-12-17 08:52:00,
2013-12-17 03:02:00,38.0,33.0,-100.00,SW,230,3.0,6.0,82,0.00,,,0.00,0.000000,,2013-12-17 09:02:00,
2013-12-17 03:43:00,37.0,33.0,-100.00,North,-999,0.0,4.0,85,0.00,,,0.00,0.000000,,2013-12-17 09:43:00,
2013-12-17 03:53:00,37.0,33.0,-100.00,North,-999,0.0,4.0,85,0.00,,,0.00,0.000000,,2013-12-17 09:53:00,
2013-12-17 04:03:00,37.0,33.0,-100.00,North,-999,0.0,4.0,85,0.00,,,0.00,0.000000,,2013-12-17 10:03:00,
2013-12-17 04:43:00,34.0,31.0,-100.00,North,-999,0.0,2.0,90,0.00,,,0.00,0.000000,,2013-12-17 10:43:00,
2013-12-17 04:53:00,34.0,31.0,-100.00,North,-999,0.0,2.0,90,0.00,,,0.00,0.000000,,2013-12-17 10:53:00,
2013-12-17 05:02:00,34.0,31.0,-100.00,North,-999,0.0,2.0,90,0.00,,,0.00,0.000000,,2013-12-17 11:02:00,
2013-12-17 05:42:00,33.0,31.0,-100.00,North,-999,0.0,0.0,91,0.00,,,0.00,0.000000,,2013-12-17 11:42:00,
2013-12-17 05:52:00,33.0,31.0,-100.00,North,-999,0.0,0.0,91,0.00,,,0.00,0.000000,,2013-12-17 11:52:00,
2013-12-17 06:02:00,33.0,31.0,-100.00,North,-999,0.0,0.0,91,0.00,,,0.00,0.000000,,2013-12-17 12:02:00,
2013-12-17 06:42:00,33.0,31.0,-100.00,North,-999,0.0,0.0,93,0.00,,,0.00,0.000000,,2013-12-17 12:42:00,
2013-12-17 06:52:00,33.0,31.0,-100.00,North,-999,0.0,0.0,93,0.00,,,0.00,0.000000,,2013-12-17 12:52:00,
2013-12-17 07:01:00,33.0,31.0,-100.00,North,-999,0.0,0.0,93,0.00,,,0.00,0.000000,,2013-12-17 13:01:00,
2013-12-17 07:42:00,34.0,32.0,-100.00,North,-999,0.0,0.0,94,0.00,,,0.00,2.000000,,2013-12-17 13:42:00,
2013-12-17 07:52:00,34.0,32.0,-100.00,North,-999,0.0,0.0,94,0.00,,,0.00,2.000000,,2013-12-17 13:52:00,
2013-12-17 08:01:00,34.0,32.0,-100.00,North,-999,0.0,0.0,94,0.00,,,0.00,2.000000,,2013-12-17 14:01:00,
2013-12-17 08:42:00,38.0,36.0,-100.00,North,-999,0.0,3.0,92,0.00,,,0.00,15.000000,,2013-12-17 14:42:00,
2013-12-17 08:52:00,38.0,36.0,-100.00,North,-999,0.0,3.0,92,0.00,,,0.00,15.000000,,2013-12-17 14:52:00,
2013-12-17 09:02:00,38.0,36.0,-100.00,North,-999,0.0,3.0,92,0.00,,,0.00,15.000000,,2013-12-17 15:02:00,
2013-12-17 09:44:00,49.0,40.0,-100.00,NNW,328,2.0,5.0,71,0.00,,,0.00,80.000000,,2013-12-17 15:44:00,
2013-12-17 09:53:00,49.0,40.0,-100.00,NNW,328,2.0,5.0,71,0.00,,,0.00,80.000000,,2013-12-17 15:53:00,
2013-12-17 10:03:00,49.0,40.0,-100.00,NNW,328,2.0,5.0,71,0.00,,,0.00,80.000000,,2013-12-17 16:03:00,
2013-12-17 10:43:00,56.0,39.0,-100.00,SW,236,3.0,7.0,53,0.00,,,0.00,347.000000,,2013-12-17 16:43:00,
2013-12-17 10:52:00,56.0,39.0,-100.00,SW,236,3.0,7.0,53,0.00,,,0.00,347.000000,,2013-12-17 16:52:00,
2013-12-17 11:02:00,56.0,39.0,-100.00,SW,236,3.0,7.0,53,0.00,,,0.00,347.000000,,2013-12-17 17:02:00,
2013-12-17 11:43:00,60.0,34.0,-100.00,West,260,4.0,9.0,38,0.00,,,0.00,457.000000,,2013-12-17 17:43:00,
2013-12-17 11:53:00,60.0,34.0,-100.00,West,260,4.0,9.0,38,0.00,,,0.00,457.000000,,2013-12-17 17:53:00,
2013-12-17 12:02:00,60.0,34.0,-100.00,West,260,4.0,9.0,38,0.00,,,0.00,457.000000,,2013-12-17 18:02:00,
2013-12-17 12:42:00,63.0,33.0,-100.00,WNW,299,3.0,8.0,33,0.00,,,0.00,509.000000,,2013-12-17 18:42:00,
2013-12-17 12:52:00,63.0,33.0,-100.00,WNW,299,3.0,8.0,33,0.00,,,0.00,509.000000,,2013-12-17 18:52:00,
2013-12-17 13:01:00,63.0,33.0,-100.00,WNW,299,3.0,8.0,33,0.00,,,0.00,509.000000,,2013-12-17 19:01:00,
2013-12-17 13:42:00,65.0,34.0,-100.00,North,-999,0.0,8.0,31,0.00,,,0.00,500.000000,,2013-12-17 19:42:00,
2013-12-17 13:52:00,65.0,34.0,-100.00,North,-999,0.0,8.0,31,0.00,,,0.00,500.000000,,2013-12-17 19:52:00,
2013-12-17 14:01:00,65.0,34.0,-100.00,North,-999,0.0,8.0,31,0.00,,,0.00,500.000000,,2013-12-17 20:01:00,
2013-12-17 14:42:00,67.0,35.0,-100.00,West,262,2.0,6.0,31,0.00,,,0.00,438.000000,,2013-12-17 20:42:00,
2013-12-17 14:52:00,67.0,35.0,-100.00,West,262,2.0,6.0,31,0.00,,,0.00,438.000000,,2013-12-17 20:52:00,
2013-12-17 15:02:00,67.0,35.0,-100.00,West,262,2.0,6.0,31,0.00,,,0.00,438.000000,,2013-12-17 21:02:00,
2013-12-17 15:43:00,66.0,36.0,-100.00,NW,320,8.0,-999.0,33,0.00,,,0.00,327.000000,,2013-12-17 21:43:00,
2013-12-17 15:53:00,66.0,36.0,-100.00,NW,320,8.0,-999.0,33,0.00,,,0.00,327.000000,,2013-12-17 21:53:00,
2013-12-17 16:03:00,66.0,36.0,-100.00,NW,320,8.0,-999.0,33,0.00,,,0.00,327.000000,,2013-12-17 22:03:00,
2013-12-17 16:43:00,61.0,38.0,-100.00,WNW,287,1.0,6.0,43,0.00,,,0.00,153.000000,,2013-12-17 22:43:00,
2013-12-17 16:53:00,61.0,38.0,-100.00,WNW,287,1.0,6.0,43,0.00,,,0.00,153.000000,,2013-12-17 22:53:00,
2013-12-17 17:03:00,61.0,38.0,-100.00,WNW,287,1.0,6.0,43,0.00,,,0.00,153.000000,,2013-12-17 23:03:00,
2013-12-17 17:42:00,53.0,44.0,-100.00,North,-999,0.0,3.0,71,0.00,,,0.00,10.000000,,2013-12-17 23:42:00,
2013-12-17 17:53:00,53.0,44.0,-100.00,North,-999,0.0,3.0,71,0.00,,,0.00,10.000000,,2013-12-17 23:53:00,
2013-12-17 18:02:00,53.0,44.0,-100.00,North,-999,0.0,3.0,71,0.00,,,0.00,10.000000,,2013-12-18 00:02:00,
2013-12-17 18:42:00,48.0,42.0,-100.00,North,-999,0.0,2.0,81,0.00,,,0.00,1.000000,,2013-12-18 00:42:00,
2013-12-17 18:52:00,48.0,42.0,-100.00,North,-999,0.0,2.0,81,0.00,,,0.00,1.000000,,2013-12-18 00:52:00,
2013-12-17 19:02:00,48.0,42.0,-100.00,North,-999,0.0,2.0,81,0.00,,,0.00,1.000000,,2013-12-18 01:02:00,
2013-12-17 19:42:00,47.0,41.0,-100.00,North,-999,0.0,0.0,81,0.00,,,-99.99,0.000000,,2013-12-18 01:42:00,
2013-12-17 19:52:00,47.0,41.0,-100.00,North,-999,0.0,0.0,81,0.00,,,-99.99,0.000000,,2013-12-18 01:52:00,
2013-12-17 20:01:00,47.0,41.0,-100.00,North,-999,0.0,0.0,81,0.00,,,-99.99,0.000000,,2013-12-18 02:01:00,
2013-12-17 20:42:00,46.0,40.0,-100.00,North,-999,0.0,2.0,78,0.00,,,0.00,0.000000,,2013-12-18 02:42:00,
2013-12-17 20:52:00,46.0,40.0,-100.00,North,-999,0.0,2.0,78,0.00,,,0.00,0.000000,,2013-12-18 02:52:00,
2013-12-17 21:02:00,46.0,40.0,-100.00,North,-999,0.0,2.0,78,0.00,,,0.00,0.000000,,2013-12-18 03:02:00,
2013-12-17 21:44:00,46.0,39.0,-100.00,North,-999,0.0,2.0,77,0.00,,,0.00,0.000000,,2013-12-18 03:44:00,
2013-12-17 21:53:00,46.0,39.0,-100.00,North,-999,0.0,2.0,77,0.00,,,0.00,0.000000,,2013-12-18 03:53:00,
2013-12-17 22:03:00,46.0,39.0,-100.00,North,-999,0.0,2.0,77,0.00,,,0.00,0.000000,,2013-12-18 04:03:00,